Aspen-Pitkin Co,Sardy Field Aspen US
ICAO: KASE
IATA: ASE
Category: Medium
Scheduled Services: Yes

Elevation: 7820 ft
TransAlt. 18000 ft.

Airport Communications:
ATIS:120.4
CLNC DEL:123.75
APP/DEP:123.8
CTAF:118.85
GND:121.9
TWR:118.85
UNICOM:122.95

KASE Zoom In..

If you have problems with the map follow the link
https://www.worldairports.se/pages/airport.php?
ICAO=KASE

Runways:

(A) RW 15 length 8006 ft width 100 ft
LOC 111.15 / hdg 151

(B) RW 33 length 8006 ft width 100 ft
LOC 111.15 / hdg 331

Location; KASE
Day. 11 / Time. 12.53 Zulu
* Altimeter: 30.24
* Temperature: -13° c. -8.6°f.
* Wind from: 190° Speed 05 kn.
Dewpoint: -17° c.
Visibility: 10 Statute Miles.
Clouds: Clear (automated report).

KASE 111253Z AUTO 19005KT 10SM CLR M13/M17 A3024 RMK AO2 SLP285 T11331167


Wind From 190°
Speed 05 kn.

 
 
jpsmedia worldairports.se 2019   terms of use